sensor_id;sensor_type;location;lat;lon;timestamp;P1;durP1;ratioP1;P2;durP2;ratioP2
75230;SDS011;63814;50.118;8.714;2022-10-26T00:01:14;9.60;;;5.53;;
75230;SDS011;63814;50.118;8.714;2022-10-26T00:03:43;10.77;;;6.27;;
75230;SDS011;63814;50.118;8.714;2022-10-26T00:06:11;9.80;;;6.13;;
75230;SDS011;63814;50.118;8.714;2022-10-26T00:08:39;10.43;;;5.80;;
75230;SDS011;63814;50.118;8.714;2022-10-26T00:11:06;12.53;;;6.13;;
75230;SDS011;63814;50.118;8.714;2022-10-26T00:13:35;8.90;;;5.80;;
75230;SDS011;63814;50.118;8.714;2022-10-26T00:16:06;11.43;;;5.87;;
75230;SDS011;63814;50.118;8.714;2022-10-26T00:18:34;8.87;;;5.37;;
75230;SDS011;63814;50.118;8.714;2022-10-26T00:21:01;10.60;;;5.60;;
75230;SDS011;63814;50.118;8.714;2022-10-26T00:23:28;7.87;;;5.20;;
75230;SDS011;63814;50.118;8.714;2022-10-26T00:25:55;8.80;;;5.57;;
75230;SDS011;63814;50.118;8.714;2022-10-26T00:28:22;11.63;;;5.10;;
75230;SDS011;63814;50.118;8.714;2022-10-26T00:30:50;12.37;;;5.03;;
75230;SDS011;63814;50.118;8.714;2022-10-26T00:33:17;10.43;;;4.97;;
75230;SDS011;63814;50.118;8.714;2022-10-26T00:35:46;7.87;;;4.97;;
75230;SDS011;63814;50.118;8.714;2022-10-26T00:38:13;9.23;;;4.73;;
75230;SDS011;63814;50.118;8.714;2022-10-26T00:40:39;8.47;;;4.47;;
75230;SDS011;63814;50.118;8.714;2022-10-26T00:43:08;10.67;;;4.80;;
75230;SDS011;63814;50.118;8.714;2022-10-26T00:45:39;9.47;;;5.23;;
75230;SDS011;63814;50.118;8.714;2022-10-26T00:48:10;8.43;;;4.73;;
75230;SDS011;63814;50.118;8.714;2022-10-26T00:50:43;8.63;;;4.43;;
75230;SDS011;63814;50.118;8.714;2022-10-26T00:53:12;8.63;;;4.43;;
75230;SDS011;63814;50.118;8.714;2022-10-26T00:55:41;9.03;;;5.13;;
75230;SDS011;63814;50.118;8.714;2022-10-26T00:58:12;8.27;;;4.47;;
75230;SDS011;63814;50.118;8.714;2022-10-26T01:00:39;9.53;;;4.47;;
75230;SDS011;63814;50.118;8.714;2022-10-26T01:03:08;12.50;;;4.27;;
75230;SDS011;63814;50.118;8.714;2022-10-26T01:05:36;7.20;;;4.27;;
75230;SDS011;63814;50.118;8.714;2022-10-26T01:08:06;8.07;;;4.43;;
75230;SDS011;63814;50.118;8.714;2022-10-26T01:10:34;7.67;;;4.27;;
75230;SDS011;63814;50.118;8.714;2022-10-26T01:13:01;9.43;;;4.47;;
75230;SDS011;63814;50.118;8.714;2022-10-26T01:15:29;11.40;;;4.63;;
75230;SDS011;63814;50.118;8.714;2022-10-26T01:18:04;8.37;;;4.10;;
75230;SDS011;63814;50.118;8.714;2022-10-26T01:20:53;8.47;;;4.57;;
75230;SDS011;63814;50.118;8.714;2022-10-26T01:23:33;7.37;;;4.43;;
75230;SDS011;63814;50.118;8.714;2022-10-26T01:29:21;6.47;;;3.57;;
75230;SDS011;63814;50.118;8.714;2022-10-26T01:32:01;7.20;;;3.93;;
75230;SDS011;63814;50.118;8.714;2022-10-26T01:34:33;8.53;;;4.27;;
75230;SDS011;63814;50.118;8.714;2022-10-26T01:37:04;10.60;;;4.20;;
75230;SDS011;63814;50.118;8.714;2022-10-26T01:39:36;6.10;;;3.70;;
75230;SDS011;63814;50.118;8.714;2022-10-26T01:42:07;7.93;;;3.83;;
75230;SDS011;63814;50.118;8.714;2022-10-26T01:44:36;8.40;;;4.33;;
75230;SDS011;63814;50.118;8.714;2022-10-26T01:47:08;5.53;;;3.40;;
75230;SDS011;63814;50.118;8.714;2022-10-26T01:49:38;8.97;;;3.57;;
75230;SDS011;63814;50.118;8.714;2022-10-26T01:52:08;5.07;;;3.50;;
75230;SDS011;63814;50.118;8.714;2022-10-26T01:54:35;9.37;;;3.80;;
75230;SDS011;63814;50.118;8.714;2022-10-26T01:57:03;7.57;;;3.53;;
75230;SDS011;63814;50.118;8.714;2022-10-26T01:59:35;6.93;;;3.50;;
75230;SDS011;63814;50.118;8.714;2022-10-26T02:02:31;6.33;;;3.40;;
75230;SDS011;63814;50.118;8.714;2022-10-26T02:05:25;5.63;;;3.47;;
75230;SDS011;63814;50.118;8.714;2022-10-26T02:08:01;7.10;;;3.20;;
75230;SDS011;63814;50.118;8.714;2022-10-26T02:10:51;5.03;;;3.03;;
75230;SDS011;63814;50.118;8.714;2022-10-26T02:13:28;7.23;;;3.40;;
75230;SDS011;63814;50.118;8.714;2022-10-26T02:15:59;6.13;;;2.90;;
75230;SDS011;63814;50.118;8.714;2022-10-26T02:18:32;6.63;;;3.40;;
75230;SDS011;63814;50.118;8.714;2022-10-26T02:21:04;7.27;;;3.50;;
75230;SDS011;63814;50.118;8.714;2022-10-26T02:23:35;10.43;;;3.07;;
75230;SDS011;63814;50.118;8.714;2022-10-26T02:26:05;10.73;;;3.63;;
75230;SDS011;63814;50.118;8.714;2022-10-26T02:28:35;7.50;;;3.70;;
75230;SDS011;63814;50.118;8.714;2022-10-26T02:31:05;5.53;;;2.80;;
75230;SDS011;63814;50.118;8.714;2022-10-26T02:33:36;5.73;;;3.30;;
75230;SDS011;63814;50.118;8.714;2022-10-26T02:36:06;8.73;;;3.90;;
75230;SDS011;63814;50.118;8.714;2022-10-26T02:38:36;9.00;;;3.33;;
75230;SDS011;63814;50.118;8.714;2022-10-26T02:41:05;11.33;;;3.90;;
75230;SDS011;63814;50.118;8.714;2022-10-26T02:43:34;5.50;;;3.50;;
75230;SDS011;63814;50.118;8.714;2022-10-26T02:46:07;8.87;;;4.00;;
75230;SDS011;63814;50.118;8.714;2022-10-26T02:48:37;9.23;;;3.20;;
75230;SDS011;63814;50.118;8.714;2022-10-26T02:51:06;13.27;;;3.60;;
75230;SDS011;63814;50.118;8.714;2022-10-26T02:53:39;8.27;;;3.30;;
75230;SDS011;63814;50.118;8.714;2022-10-26T02:56:13;8.37;;;3.17;;
75230;SDS011;63814;50.118;8.714;2022-10-26T02:58:44;7.87;;;3.47;;
75230;SDS011;63814;50.118;8.714;2022-10-26T03:01:14;6.80;;;3.07;;
75230;SDS011;63814;50.118;8.714;2022-10-26T03:03:42;6.37;;;3.07;;
75230;SDS011;63814;50.118;8.714;2022-10-26T03:06:09;5.17;;;3.50;;
75230;SDS011;63814;50.118;8.714;2022-10-26T03:08:35;6.87;;;3.33;;
75230;SDS011;63814;50.118;8.714;2022-10-26T03:11:02;7.13;;;3.50;;
75230;SDS011;63814;50.118;8.714;2022-10-26T03:13:28;7.27;;;3.60;;
75230;SDS011;63814;50.118;8.714;2022-10-26T03:15:55;7.37;;;3.43;;
75230;SDS011;63814;50.118;8.714;2022-10-26T03:18:22;4.70;;;3.33;;
75230;SDS011;63814;50.118;8.714;2022-10-26T03:20:50;6.00;;;3.37;;
75230;SDS011;63814;50.118;8.714;2022-10-26T03:23:16;5.10;;;3.23;;
75230;SDS011;63814;50.118;8.714;2022-10-26T03:25:42;8.30;;;3.53;;
75230;SDS011;63814;50.118;8.714;2022-10-26T03:28:09;5.57;;;3.27;;
75230;SDS011;63814;50.118;8.714;2022-10-26T03:30:35;6.00;;;3.23;;
75230;SDS011;63814;50.118;8.714;2022-10-26T03:33:02;8.87;;;3.70;;
75230;SDS011;63814;50.118;8.714;2022-10-26T03:35:28;6.17;;;3.07;;
75230;SDS011;63814;50.118;8.714;2022-10-26T03:37:56;6.57;;;3.33;;
75230;SDS011;63814;50.118;8.714;2022-10-26T03:40:23;7.87;;;3.87;;
75230;SDS011;63814;50.118;8.714;2022-10-26T03:42:49;7.47;;;3.53;;
75230;SDS011;63814;50.118;8.714;2022-10-26T03:45:16;8.50;;;3.73;;
75230;SDS011;63814;50.118;8.714;2022-10-26T03:47:42;7.80;;;3.70;;
75230;SDS011;63814;50.118;8.714;2022-10-26T03:50:10;7.27;;;3.70;;
75230;SDS011;63814;50.118;8.714;2022-10-26T03:52:37;6.63;;;3.77;;
75230;SDS011;63814;50.118;8.714;2022-10-26T03:55:06;8.17;;;3.80;;
75230;SDS011;63814;50.118;8.714;2022-10-26T03:57:33;6.67;;;4.07;;
75230;SDS011;63814;50.118;8.714;2022-10-26T04:00:00;9.57;;;3.50;;
75230;SDS011;63814;50.118;8.714;2022-10-26T04:02:27;6.27;;;3.63;;
75230;SDS011;63814;50.118;8.714;2022-10-26T04:04:53;8.00;;;3.57;;
75230;SDS011;63814;50.118;8.714;2022-10-26T04:07:20;8.07;;;3.80;;
75230;SDS011;63814;50.118;8.714;2022-10-26T04:09:46;6.63;;;4.20;;
75230;SDS011;63814;50.118;8.714;2022-10-26T04:12:14;9.77;;;3.80;;
75230;SDS011;63814;50.118;8.714;2022-10-26T04:14:41;7.50;;;4.00;;
75230;SDS011;63814;50.118;8.714;2022-10-26T04:17:07;9.47;;;4.20;;
75230;SDS011;63814;50.118;8.714;2022-10-26T04:19:33;10.43;;;3.90;;
75230;SDS011;63814;50.118;8.714;2022-10-26T04:22:00;7.10;;;4.17;;
75230;SDS011;63814;50.118;8.714;2022-10-26T04:24:26;6.43;;;3.77;;
75230;SDS011;63814;50.118;8.714;2022-10-26T04:26:53;7.00;;;4.13;;
75230;SDS011;63814;50.118;8.714;2022-10-26T04:29:21;8.40;;;4.30;;
75230;SDS011;63814;50.118;8.714;2022-10-26T04:31:47;9.87;;;4.80;;
75230;SDS011;63814;50.118;8.714;2022-10-26T04:34:14;13.00;;;4.87;;
75230;SDS011;63814;50.118;8.714;2022-10-26T04:36:40;10.40;;;4.50;;
75230;SDS011;63814;50.118;8.714;2022-10-26T04:39:07;11.53;;;4.80;;
75230;SDS011;63814;50.118;8.714;2022-10-26T04:41:33;9.53;;;4.67;;
75230;SDS011;63814;50.118;8.714;2022-10-26T04:44:00;13.67;;;4.83;;
75230;SDS011;63814;50.118;8.714;2022-10-26T04:46:27;10.33;;;5.23;;
75230;SDS011;63814;50.118;8.714;2022-10-26T04:48:54;7.93;;;5.00;;
75230;SDS011;63814;50.118;8.714;2022-10-26T04:51:20;10.97;;;5.33;;
75230;SDS011;63814;50.118;8.714;2022-10-26T04:53:47;11.73;;;4.90;;
75230;SDS011;63814;50.118;8.714;2022-10-26T04:56:13;8.83;;;4.83;;
75230;SDS011;63814;50.118;8.714;2022-10-26T04:58:40;9.00;;;5.37;;
75230;SDS011;63814;50.118;8.714;2022-10-26T05:01:06;10.23;;;4.87;;
75230;SDS011;63814;50.118;8.714;2022-10-26T05:03:34;6.40;;;4.27;;
75230;SDS011;63814;50.118;8.714;2022-10-26T05:06:00;13.10;;;5.37;;
75230;SDS011;63814;50.118;8.714;2022-10-26T05:08:30;8.47;;;4.50;;
75230;SDS011;63814;50.118;8.714;2022-10-26T05:10:56;8.07;;;5.03;;
75230;SDS011;63814;50.118;8.714;2022-10-26T05:13:23;7.53;;;4.43;;
75230;SDS011;63814;50.118;8.714;2022-10-26T05:15:51;8.10;;;4.20;;
75230;SDS011;63814;50.118;8.714;2022-10-26T05:18:18;5.20;;;4.13;;
75230;SDS011;63814;50.118;8.714;2022-10-26T05:20:46;10.53;;;4.47;;
75230;SDS011;63814;50.118;8.714;2022-10-26T05:23:14;12.23;;;4.67;;
75230;SDS011;63814;50.118;8.714;2022-10-26T05:25:42;7.43;;;4.47;;
75230;SDS011;63814;50.118;8.714;2022-10-26T05:28:10;8.13;;;4.17;;
75230;SDS011;63814;50.118;8.714;2022-10-26T05:30:38;7.53;;;4.53;;
75230;SDS011;63814;50.118;8.714;2022-10-26T05:33:05;9.73;;;4.50;;
75230;SDS011;63814;50.118;8.714;2022-10-26T05:35:32;11.13;;;5.03;;
75230;SDS011;63814;50.118;8.714;2022-10-26T05:38:01;11.17;;;4.77;;
75230;SDS011;63814;50.118;8.714;2022-10-26T05:40:32;13.37;;;5.13;;
75230;SDS011;63814;50.118;8.714;2022-10-26T05:42:58;9.80;;;4.87;;
75230;SDS011;63814;50.118;8.714;2022-10-26T05:45:26;6.80;;;4.47;;
75230;SDS011;63814;50.118;8.714;2022-10-26T05:47:52;9.77;;;5.13;;
75230;SDS011;63814;50.118;8.714;2022-10-26T05:50:19;9.03;;;4.53;;
75230;SDS011;63814;50.118;8.714;2022-10-26T05:52:46;10.30;;;4.17;;
75230;SDS011;63814;50.118;8.714;2022-10-26T05:55:15;11.57;;;4.77;;
75230;SDS011;63814;50.118;8.714;2022-10-26T05:57:43;9.63;;;4.83;;
75230;SDS011;63814;50.118;8.714;2022-10-26T06:00:14;6.33;;;4.20;;
75230;SDS011;63814;50.118;8.714;2022-10-26T06:02:43;10.33;;;4.63;;
75230;SDS011;63814;50.118;8.714;2022-10-26T06:05:22;8.13;;;4.47;;
75230;SDS011;63814;50.118;8.714;2022-10-26T06:07:51;7.77;;;4.57;;
75230;SDS011;63814;50.118;8.714;2022-10-26T06:10:20;6.73;;;4.00;;
75230;SDS011;63814;50.118;8.714;2022-10-26T06:12:47;9.47;;;5.70;;
75230;SDS011;63814;50.118;8.714;2022-10-26T06:15:15;11.20;;;6.93;;
75230;SDS011;63814;50.118;8.714;2022-10-26T06:17:46;11.27;;;6.07;;
75230;SDS011;63814;50.118;8.714;2022-10-26T06:20:27;10.20;;;4.90;;
75230;SDS011;63814;50.118;8.714;2022-10-26T06:23:05;10.37;;;5.17;;
75230;SDS011;63814;50.118;8.714;2022-10-26T06:25:46;13.90;;;6.30;;
75230;SDS011;63814;50.118;8.714;2022-10-26T06:28:24;12.23;;;6.13;;
75230;SDS011;63814;50.118;8.714;2022-10-26T06:30:59;8.20;;;4.40;;
75230;SDS011;63814;50.118;8.714;2022-10-26T06:33:26;9.97;;;5.30;;
75230;SDS011;63814;50.118;8.714;2022-10-26T06:35:56;12.87;;;5.53;;
75230;SDS011;63814;50.118;8.714;2022-10-26T06:38:31;9.70;;;6.97;;
75230;SDS011;63814;50.118;8.714;2022-10-26T06:41:01;8.53;;;5.50;;
75230;SDS011;63814;50.118;8.714;2022-10-26T06:43:29;7.10;;;4.77;;
75230;SDS011;63814;50.118;8.714;2022-10-26T06:45:59;7.27;;;4.50;;
75230;SDS011;63814;50.118;8.714;2022-10-26T06:48:38;12.90;;;5.10;;
75230;SDS011;63814;50.118;8.714;2022-10-26T06:51:11;10.20;;;4.83;;
75230;SDS011;63814;50.118;8.714;2022-10-26T06:53:55;9.77;;;5.23;;
75230;SDS011;63814;50.118;8.714;2022-10-26T06:56:26;9.87;;;6.17;;
75230;SDS011;63814;50.118;8.714;2022-10-26T06:58:53;11.57;;;7.70;;
75230;SDS011;63814;50.118;8.714;2022-10-26T07:01:27;12.00;;;7.43;;
75230;SDS011;63814;50.118;8.714;2022-10-26T07:03:53;11.33;;;6.23;;
75230;SDS011;63814;50.118;8.714;2022-10-26T07:06:20;10.20;;;5.30;;
75230;SDS011;63814;50.118;8.714;2022-10-26T07:08:46;7.40;;;5.03;;
75230;SDS011;63814;50.118;8.714;2022-10-26T07:11:13;9.70;;;6.30;;
75230;SDS011;63814;50.118;8.714;2022-10-26T07:13:41;11.70;;;7.80;;
75230;SDS011;63814;50.118;8.714;2022-10-26T07:16:07;10.10;;;6.33;;
75230;SDS011;63814;50.118;8.714;2022-10-26T07:18:34;8.63;;;4.57;;
75230;SDS011;63814;50.118;8.714;2022-10-26T07:21:00;11.90;;;7.33;;
75230;SDS011;63814;50.118;8.714;2022-10-26T07:23:26;8.23;;;5.73;;
75230;SDS011;63814;50.118;8.714;2022-10-26T07:25:53;8.00;;;5.50;;
75230;SDS011;63814;50.118;8.714;2022-10-26T07:28:19;8.60;;;5.00;;
75230;SDS011;63814;50.118;8.714;2022-10-26T07:30:47;8.87;;;5.00;;
75230;SDS011;63814;50.118;8.714;2022-10-26T07:33:14;9.33;;;5.97;;
75230;SDS011;63814;50.118;8.714;2022-10-26T07:35:40;12.37;;;6.00;;
75230;SDS011;63814;50.118;8.714;2022-10-26T07:38:07;13.77;;;5.70;;
75230;SDS011;63814;50.118;8.714;2022-10-26T07:40:34;14.43;;;7.47;;
75230;SDS011;63814;50.118;8.714;2022-10-26T07:43:01;10.67;;;6.03;;
75230;SDS011;63814;50.118;8.714;2022-10-26T07:45:28;12.97;;;5.63;;
75230;SDS011;63814;50.118;8.714;2022-10-26T07:47:57;11.47;;;5.43;;
75230;SDS011;63814;50.118;8.714;2022-10-26T07:50:23;11.93;;;5.23;;
75230;SDS011;63814;50.118;8.714;2022-10-26T07:52:50;10.87;;;5.27;;
75230;SDS011;63814;50.118;8.714;2022-10-26T07:55:16;8.73;;;5.67;;
75230;SDS011;63814;50.118;8.714;2022-10-26T07:57:44;12.10;;;5.97;;
75230;SDS011;63814;50.118;8.714;2022-10-26T08:00:11;12.20;;;5.93;;
75230;SDS011;63814;50.118;8.714;2022-10-26T08:02:38;10.83;;;5.87;;
75230;SDS011;63814;50.118;8.714;2022-10-26T08:05:06;10.70;;;5.37;;
75230;SDS011;63814;50.118;8.714;2022-10-26T08:07:33;13.03;;;5.67;;
75230;SDS011;63814;50.118;8.714;2022-10-26T08:10:05;12.13;;;6.00;;
75230;SDS011;63814;50.118;8.714;2022-10-26T08:12:32;14.57;;;5.60;;
75230;SDS011;63814;50.118;8.714;2022-10-26T08:14:59;11.40;;;4.80;;
75230;SDS011;63814;50.118;8.714;2022-10-26T08:17:25;14.33;;;5.90;;
75230;SDS011;63814;50.118;8.714;2022-10-26T08:19:53;12.47;;;5.43;;
75230;SDS011;63814;50.118;8.714;2022-10-26T08:22:21;12.23;;;5.40;;
75230;SDS011;63814;50.118;8.714;2022-10-26T08:24:47;17.60;;;5.83;;
75230;SDS011;63814;50.118;8.714;2022-10-26T08:27:14;11.80;;;5.47;;
75230;SDS011;63814;50.118;8.714;2022-10-26T08:29:41;15.47;;;5.83;;
75230;SDS011;63814;50.118;8.714;2022-10-26T08:32:08;12.40;;;5.40;;
75230;SDS011;63814;50.118;8.714;2022-10-26T08:34:34;22.67;;;5.73;;
75230;SDS011;63814;50.118;8.714;2022-10-26T08:37:01;10.90;;;5.43;;
75230;SDS011;63814;50.118;8.714;2022-10-26T08:39:29;17.30;;;6.60;;
75230;SDS011;63814;50.118;8.714;2022-10-26T08:41:56;17.93;;;6.10;;
75230;SDS011;63814;50.118;8.714;2022-10-26T08:44:28;17.80;;;5.83;;
75230;SDS011;63814;50.118;8.714;2022-10-26T08:46:58;16.43;;;5.63;;
75230;SDS011;63814;50.118;8.714;2022-10-26T08:49:34;11.13;;;5.03;;
75230;SDS011;63814;50.118;8.714;2022-10-26T08:52:08;11.13;;;5.10;;
75230;SDS011;63814;50.118;8.714;2022-10-26T08:54:41;13.43;;;4.83;;
75230;SDS011;63814;50.118;8.714;2022-10-26T08:57:13;13.00;;;4.70;;
75230;SDS011;63814;50.118;8.714;2022-10-26T08:59:46;9.50;;;4.73;;
75230;SDS011;63814;50.118;8.714;2022-10-26T09:02:17;11.00;;;4.63;;
75230;SDS011;63814;50.118;8.714;2022-10-26T09:04:45;10.93;;;4.90;;
75230;SDS011;63814;50.118;8.714;2022-10-26T09:07:14;8.97;;;4.40;;
75230;SDS011;63814;50.118;8.714;2022-10-26T09:09:51;9.50;;;5.23;;
75230;SDS011;63814;50.118;8.714;2022-10-26T09:12:27;10.37;;;4.87;;
75230;SDS011;63814;50.118;8.714;2022-10-26T09:15:07;8.67;;;4.30;;
75230;SDS011;63814;50.118;8.714;2022-10-26T09:17:42;8.77;;;4.70;;
75230;SDS011;63814;50.118;8.714;2022-10-26T09:20:32;7.83;;;4.10;;
75230;SDS011;63814;50.118;8.714;2022-10-26T09:23:10;14.27;;;5.20;;
75230;SDS011;63814;50.118;8.714;2022-10-26T09:25:49;10.00;;;5.60;;
75230;SDS011;63814;50.118;8.714;2022-10-26T09:28:22;9.53;;;5.53;;
75230;SDS011;63814;50.118;8.714;2022-10-26T09:30:56;11.73;;;3.90;;
75230;SDS011;63814;50.118;8.714;2022-10-26T09:33:24;8.83;;;4.37;;
75230;SDS011;63814;50.118;8.714;2022-10-26T09:35:51;9.57;;;4.77;;
75230;SDS011;63814;50.118;8.714;2022-10-26T09:38:25;6.00;;;3.50;;
75230;SDS011;63814;50.118;8.714;2022-10-26T09:40:57;7.17;;;4.17;;
75230;SDS011;63814;50.118;8.714;2022-10-26T09:43:28;10.83;;;4.27;;
75230;SDS011;63814;50.118;8.714;2022-10-26T09:46:00;8.73;;;4.20;;
75230;SDS011;63814;50.118;8.714;2022-10-26T09:48:30;9.10;;;4.10;;
75230;SDS011;63814;50.118;8.714;2022-10-26T09:51:01;10.73;;;4.40;;
75230;SDS011;63814;50.118;8.714;2022-10-26T09:53:28;8.23;;;4.47;;
75230;SDS011;63814;50.118;8.714;2022-10-26T09:55:58;8.10;;;4.30;;
75230;SDS011;63814;50.118;8.714;2022-10-26T09:58:30;8.87;;;4.30;;
75230;SDS011;63814;50.118;8.714;2022-10-26T10:01:00;9.37;;;4.07;;
75230;SDS011;63814;50.118;8.714;2022-10-26T10:03:27;8.00;;;4.10;;
75230;SDS011;63814;50.118;8.714;2022-10-26T10:06:12;8.93;;;3.70;;
75230;SDS011;63814;50.118;8.714;2022-10-26T10:08:41;6.65;;;3.60;;
75230;SDS011;63814;50.118;8.714;2022-10-26T10:11:10;5.45;;;3.53;;
75230;SDS011;63814;50.118;8.714;2022-10-26T10:13:38;5.20;;;3.03;;
75230;SDS011;63814;50.118;8.714;2022-10-26T10:16:07;9.98;;;3.80;;
75230;SDS011;63814;50.118;8.714;2022-10-26T10:18:37;6.00;;;3.35;;
75230;SDS011;63814;50.118;8.714;2022-10-26T10:21:05;7.47;;;3.35;;
75230;SDS011;63814;50.118;8.714;2022-10-26T10:23:33;8.90;;;3.55;;
75230;SDS011;63814;50.118;8.714;2022-10-26T10:26:02;6.60;;;3.30;;
75230;SDS011;63814;50.118;8.714;2022-10-26T10:28:32;10.18;;;3.95;;
75230;SDS011;63814;50.118;8.714;2022-10-26T10:30:59;10.40;;;3.60;;
75230;SDS011;63814;50.118;8.714;2022-10-26T10:33:31;6.55;;;3.20;;
75230;SDS011;63814;50.118;8.714;2022-10-26T10:35:59;6.07;;;3.33;;
75230;SDS011;63814;50.118;8.714;2022-10-26T10:38:27;7.88;;;3.65;;
75230;SDS011;63814;50.118;8.714;2022-10-26T10:40:54;8.07;;;4.10;;
75230;SDS011;63814;50.118;8.714;2022-10-26T10:43:23;10.90;;;3.78;;
75230;SDS011;63814;50.118;8.714;2022-10-26T10:45:53;7.82;;;3.28;;
75230;SDS011;63814;50.118;8.714;2022-10-26T10:48:22;8.15;;;3.28;;
75230;SDS011;63814;50.118;8.714;2022-10-26T10:50:53;6.40;;;3.30;;
75230;SDS011;63814;50.118;8.714;2022-10-26T10:53:22;6.57;;;3.50;;
75230;SDS011;63814;50.118;8.714;2022-10-26T10:56:04;11.45;;;3.67;;
75230;SDS011;63814;50.118;8.714;2022-10-26T10:58:42;5.47;;;2.97;;
75230;SDS011;63814;50.118;8.714;2022-10-26T11:01:17;9.02;;;3.55;;
75230;SDS011;63814;50.118;8.714;2022-10-26T11:06:39;10.30;;;3.67;;
75230;SDS011;63814;50.118;8.714;2022-10-26T11:09:08;8.05;;;3.28;;
75230;SDS011;63814;50.118;8.714;2022-10-26T11:11:39;6.13;;;3.17;;
75230;SDS011;63814;50.118;8.714;2022-10-26T11:14:11;9.93;;;2.83;;
75230;SDS011;63814;50.118;8.714;2022-10-26T11:16:45;9.93;;;3.65;;
75230;SDS011;63814;50.118;8.714;2022-10-26T11:19:16;7.03;;;3.22;;
75230;SDS011;63814;50.118;8.714;2022-10-26T11:21:48;6.90;;;3.20;;
75230;SDS011;63814;50.118;8.714;2022-10-26T11:24:19;10.00;;;3.67;;
75230;SDS011;63814;50.118;8.714;2022-10-26T11:26:49;7.80;;;3.10;;
75230;SDS011;63814;50.118;8.714;2022-10-26T11:29:22;8.20;;;3.55;;
75230;SDS011;63814;50.118;8.714;2022-10-26T11:31:58;8.45;;;3.45;;
75230;SDS011;63814;50.118;8.714;2022-10-26T11:34:32;6.72;;;3.33;;
75230;SDS011;63814;50.118;8.714;2022-10-26T11:37:05;7.45;;;3.80;;
75230;SDS011;63814;50.118;8.714;2022-10-26T11:39:41;8.88;;;3.50;;
75230;SDS011;63814;50.118;8.714;2022-10-26T11:42:14;6.05;;;3.38;;
75230;SDS011;63814;50.118;8.714;2022-10-26T11:44:48;8.25;;;3.30;;
75230;SDS011;63814;50.118;8.714;2022-10-26T11:47:21;8.52;;;3.25;;
75230;SDS011;63814;50.118;8.714;2022-10-26T11:49:53;6.75;;;3.38;;
75230;SDS011;63814;50.118;8.714;2022-10-26T11:52:28;7.60;;;3.50;;
75230;SDS011;63814;50.118;8.714;2022-10-26T11:54:58;5.00;;;3.35;;
75230;SDS011;63814;50.118;8.714;2022-10-26T11:57:26;7.30;;;3.70;;
75230;SDS011;63814;50.118;8.714;2022-10-26T11:59:55;7.68;;;3.00;;
75230;SDS011;63814;50.118;8.714;2022-10-26T12:02:27;6.65;;;3.08;;
75230;SDS011;63814;50.118;8.714;2022-10-26T12:04:55;9.60;;;3.30;;
75230;SDS011;63814;50.118;8.714;2022-10-26T12:07:28;8.23;;;3.47;;
75230;SDS011;63814;50.118;8.714;2022-10-26T12:09:56;7.32;;;3.28;;
75230;SDS011;63814;50.118;8.714;2022-10-26T12:12:27;9.77;;;3.58;;
75230;SDS011;63814;50.118;8.714;2022-10-26T12:15:02;8.65;;;3.15;;
75230;SDS011;63814;50.118;8.714;2022-10-26T12:17:42;7.25;;;3.30;;
75230;SDS011;63814;50.118;8.714;2022-10-26T12:20:20;10.95;;;3.20;;
75230;SDS011;63814;50.118;8.714;2022-10-26T12:23:13;6.75;;;3.30;;
75230;SDS011;63814;50.118;8.714;2022-10-26T12:25:41;8.30;;;3.40;;
75230;SDS011;63814;50.118;8.714;2022-10-26T12:28:17;13.23;;;3.50;;
75230;SDS011;63814;50.118;8.714;2022-10-26T12:34:09;8.32;;;3.47;;
75230;SDS011;63814;50.118;8.714;2022-10-26T12:36:46;11.87;;;3.67;;
75230;SDS011;63814;50.118;8.714;2022-10-26T12:39:26;7.78;;;3.33;;
75230;SDS011;63814;50.118;8.714;2022-10-26T12:41:55;7.38;;;3.13;;
75230;SDS011;63814;50.118;8.714;2022-10-26T12:44:30;10.38;;;3.35;;
75230;SDS011;63814;50.118;8.714;2022-10-26T12:46:58;9.85;;;3.25;;
75230;SDS011;63814;50.118;8.714;2022-10-26T12:52:27;6.72;;;3.47;;
75230;SDS011;63814;50.118;8.714;2022-10-26T12:58:11;7.35;;;3.28;;
75230;SDS011;63814;50.118;8.714;2022-10-26T13:00:50;10.93;;;3.65;;
75230;SDS011;63814;50.118;8.714;2022-10-26T13:03:40;6.95;;;3.22;;
75230;SDS011;63814;50.118;8.714;2022-10-26T13:06:20;12.93;;;3.20;;
75230;SDS011;63814;50.118;8.714;2022-10-26T13:09:05;7.60;;;3.40;;
75230;SDS011;63814;50.118;8.714;2022-10-26T13:11:34;9.73;;;3.40;;
75230;SDS011;63814;50.118;8.714;2022-10-26T13:14:05;6.47;;;2.70;;
75230;SDS011;63814;50.118;8.714;2022-10-26T13:16:43;8.07;;;3.08;;
75230;SDS011;63814;50.118;8.714;2022-10-26T13:19:21;6.72;;;3.15;;
75230;SDS011;63814;50.118;8.714;2022-10-26T13:21:50;7.50;;;2.90;;
75230;SDS011;63814;50.118;8.714;2022-10-26T13:24:18;7.00;;;2.60;;
75230;SDS011;63814;50.118;8.714;2022-10-26T13:32:53;5.97;;;2.53;;
75230;SDS011;63814;50.118;8.714;2022-10-26T13:35:22;5.28;;;2.53;;
75230;SDS011;63814;50.118;8.714;2022-10-26T13:37:50;6.85;;;2.70;;
75230;SDS011;63814;50.118;8.714;2022-10-26T13:40:21;8.95;;;3.13;;
75230;SDS011;63814;50.118;8.714;2022-10-26T13:42:50;8.20;;;2.80;;
75230;SDS011;63814;50.118;8.714;2022-10-26T13:45:20;6.30;;;2.83;;
75230;SDS011;63814;50.118;8.714;2022-10-26T13:47:51;6.60;;;2.60;;
75230;SDS011;63814;50.118;8.714;2022-10-26T13:50:23;6.55;;;2.92;;
75230;SDS011;63814;50.118;8.714;2022-10-26T13:52:52;6.30;;;2.50;;
75230;SDS011;63814;50.118;8.714;2022-10-26T13:55:22;9.38;;;3.47;;
75230;SDS011;63814;50.118;8.714;2022-10-26T13:57:59;8.40;;;3.15;;
75230;SDS011;63814;50.118;8.714;2022-10-26T14:00:34;6.43;;;3.03;;
75230;SDS011;63814;50.118;8.714;2022-10-26T14:03:10;6.70;;;2.90;;
75230;SDS011;63814;50.118;8.714;2022-10-26T14:05:40;9.27;;;2.67;;
75230;SDS011;63814;50.118;8.714;2022-10-26T14:08:10;5.85;;;2.45;;
75230;SDS011;63814;50.118;8.714;2022-10-26T14:10:44;6.88;;;2.53;;
75230;SDS011;63814;50.118;8.714;2022-10-26T14:13:14;6.20;;;2.40;;
75230;SDS011;63814;50.118;8.714;2022-10-26T14:15:43;8.85;;;2.70;;
75230;SDS011;63814;50.118;8.714;2022-10-26T14:18:13;7.18;;;2.55;;
75230;SDS011;63814;50.118;8.714;2022-10-26T14:20:46;6.45;;;2.70;;
75230;SDS011;63814;50.118;8.714;2022-10-26T14:23:25;5.28;;;2.60;;
75230;SDS011;63814;50.118;8.714;2022-10-26T14:25:54;6.15;;;2.53;;
75230;SDS011;63814;50.118;8.714;2022-10-26T14:28:22;4.13;;;2.45;;
75230;SDS011;63814;50.118;8.714;2022-10-26T14:30:50;6.50;;;2.33;;
75230;SDS011;63814;50.118;8.714;2022-10-26T14:33:16;10.13;;;2.70;;
75230;SDS011;63814;50.118;8.714;2022-10-26T14:35:44;6.18;;;2.10;;
75230;SDS011;63814;50.118;8.714;2022-10-26T14:38:14;6.50;;;2.40;;
75230;SDS011;63814;50.118;8.714;2022-10-26T14:40:44;6.93;;;2.58;;
75230;SDS011;63814;50.118;8.714;2022-10-26T14:43:13;7.28;;;2.83;;
75230;SDS011;63814;50.118;8.714;2022-10-26T14:45:46;7.47;;;2.60;;
75230;SDS011;63814;50.118;8.714;2022-10-26T14:48:18;6.32;;;2.40;;
75230;SDS011;63814;50.118;8.714;2022-10-26T14:50:57;6.72;;;2.50;;
75230;SDS011;63814;50.118;8.714;2022-10-26T14:53:28;5.28;;;2.75;;
75230;SDS011;63814;50.118;8.714;2022-10-26T14:55:58;6.68;;;2.60;;
75230;SDS011;63814;50.118;8.714;2022-10-26T14:58:26;4.78;;;2.65;;
75230;SDS011;63814;50.118;8.714;2022-10-26T15:03:51;8.70;;;2.58;;
75230;SDS011;63814;50.118;8.714;2022-10-26T15:06:20;8.38;;;3.08;;
75230;SDS011;63814;50.118;8.714;2022-10-26T15:08:47;6.97;;;2.50;;
75230;SDS011;63814;50.118;8.714;2022-10-26T15:11:19;6.80;;;2.75;;
75230;SDS011;63814;50.118;8.714;2022-10-26T15:13:47;9.32;;;3.08;;
75230;SDS011;63814;50.118;8.714;2022-10-26T15:16:14;8.32;;;2.72;;
75230;SDS011;63814;50.118;8.714;2022-10-26T15:18:43;9.48;;;2.80;;
75230;SDS011;63814;50.118;8.714;2022-10-26T15:21:22;4.78;;;2.50;;
75230;SDS011;63814;50.118;8.714;2022-10-26T15:23:50;9.63;;;4.13;;
75230;SDS011;63814;50.118;8.714;2022-10-26T15:26:18;8.20;;;3.63;;